Latest Weather Observations for Milingimbi

IDD60801

Issued at 10:31 am CST Sunday 26 April 2015 (issued every 30 minutes, with the page automatically refreshed every 10 minutes)

About weather observations | Map of weather stations | Latest weather observations for NT | Other Formats
Station Details ID: 014404 Name: MILINGIMBI AIRPORT Lat: -12.09 Lon: 134.89 Height: 15.0 m
Data from the previous 72 hours. | See also: Recent months at Milingimbi
Date/Time
CST
Temp
°C
App
Temp
°C
Dew
Point
Rel
Hum
%
Delta-T
°C
Wind Press
QNH
hPa
Press
MSL
hPa
Rain
since 9 am
mm
Dir
 
Spd
km/h
Gust
km/h
Spd
kts
Gust
kts
26/10:30am 28.6 27.3 19.8 59 5.8 SSE 26 35 14 19 1013.3 - 0.0
26/10:00am 28.0 26.2 19.5 60 5.5 SSE 28 39 15 21 1013.1 - 0.0
26/09:30am 27.3 26.6 19.4 62 5.1 SSE 22 33 12 18 1013.1 - 0.0
26/09:00am 26.5 25.9 18.9 63 4.9 S 20 28 11 15 1013.0 1012.9 0.0
26/08:30am 25.5 25.0 18.7 66 4.3 SSE 19 28 10 15 1012.8 - 0.0
26/08:00am 24.2 24.0 18.6 71 3.5 S 17 22 9 12 1012.5 - 0.0
26/07:30am 22.9 23.2 18.7 77 2.7 S 15 20 8 11 1012.2 - 0.0
26/07:00am 22.0 22.8 19.0 83 1.9 S 13 17 7 9 1011.8 - 0.0
26/06:30am 21.6 23.1 18.8 84 1.8 S 9 13 5 7 1011.6 - 0.0
26/06:00am 21.8 23.3 18.8 83 1.9 S 9 11 5 6 1011.6 1011.5 0.0
26/05:30am 22.1 23.7 19.1 83 1.9 S 9 13 5 7 1011.6 - 0.0
26/05:00am 21.7 23.6 18.9 84 1.8 S 7 9 4 5 1011.5 - 0.0
26/04:30am 22.0 23.9 18.6 81 2.1 S 6 9 3 5 1011.4 - 0.0
26/04:00am 22.6 24.4 18.8 79 2.4 SSE 7 9 4 5 1011.4 - 0.0
26/03:30am 23.1 24.6 18.8 77 2.7 SSE 9 11 5 6 1011.2 - 0.0
26/03:00am 23.6 25.1 18.9 75 3.0 SSE 9 13 5 7 1011.3 1011.2 0.0
26/02:30am 23.8 25.2 18.7 73 3.2 SSE 9 11 5 6 1011.3 - 0.0
26/02:00am 24.0 25.0 18.6 72 3.4 SSE 11 15 6 8 1011.4 - 0.0
26/01:30am 24.3 25.6 18.5 70 3.7 SSE 9 13 5 7 1011.6 - 0.0
26/01:00am 24.6 25.9 18.5 69 3.9 SSE 9 15 5 8 1011.8 - 0.0
26/12:30am 24.9 25.8 18.3 66 4.2 SSE 11 17 6 9 1011.9 - 0.0
26/12:00am 25.2 26.1 18.4 66 4.3 SSE 11 15 6 8 1012.2 1012.1 0.0
 
Date/Time
CST
Temp
°C
App
Temp
°C
Dew
Point
Rel
Hum
%
Delta-T
°C
Wind Press
QNH
hPa
Press
MSL
hPa
Rain
since 9 am
mm
Dir
 
Spd
km/h
Gust
km/h
Spd
kts
Gust
kts
25/11:30pm 25.6 26.1 18.3 64 4.6 SE 13 17 7 9 1012.3 - 0.0
25/11:00pm 25.9 25.8 17.8 61 5.1 SE 15 20 8 11 1012.6 - 0.0
25/10:30pm 26.4 25.9 17.7 58 5.5 SE 17 26 9 14 1012.7 - 0.0
25/10:00pm 26.5 25.7 17.0 56 5.9 SE 17 22 9 12 1012.5 - 0.0
25/09:30pm 26.9 25.6 16.8 54 6.3 SE 19 26 10 14 1012.3 - 0.0
25/09:00pm 27.1 25.5 16.1 51 6.8 SE 19 28 10 15 1012.2 1012.1 0.0
25/08:30pm 27.6 26.0 15.9 49 7.2 SSE 19 26 10 14 1011.9 - 0.0
25/08:00pm 27.9 26.9 16.5 50 7.1 SE 17 24 9 13 1011.4 - 0.0
25/07:30pm 28.5 27.4 16.4 48 7.5 SE 17 24 9 13 1010.9 - 0.0
25/07:00pm 28.9 28.2 16.5 47 7.7 SSE 15 22 8 12 1010.4 - 0.0
25/06:30pm 29.5 28.7 16.0 44 8.4 SE 15 22 8 12 1010.0 - 0.0
25/06:00pm 30.4 29.3 15.3 40 9.3 SE 15 22 8 12 1009.9 1009.8 0.0
25/05:30pm 31.2 30.2 15.6 39 9.7 SE 15 20 8 11 1009.5 - 0.0
25/05:00pm 31.9 30.7 16.2 38 9.8 SE 17 22 9 12 1009.1 - 0.0
25/04:30pm 32.0 30.9 16.3 39 9.9 ESE 17 26 9 14 1008.8 - 0.0
25/04:00pm 32.1 31.3 16.0 38 10.1 E 15 22 8 12 1008.7 - 0.0
25/03:30pm 32.3 31.7 15.7 36 10.3 E 13 20 7 11 1008.6 - 0.0
25/03:00pm 32.1 30.5 15.1 35 10.5 E 17 24 9 13 1008.7 1008.6 0.0
25/02:30pm 32.5 30.4 14.6 34 11.0 ESE 19 26 10 14 1008.9 - 0.0
25/02:00pm 32.3 29.4 13.0 31 11.6 E 20 28 11 15 1009.3 - 0.0
25/01:30pm 32.0 31.0 15.5 37 10.2 E 15 22 8 12 1009.7 - 0.0
25/01:00pm 31.4 30.6 16.2 40 9.5 E 15 20 8 11 1010.1 - 0.0
25/12:30pm 30.7 31.2 17.4 45 8.5 ESE 11 17 6 9 1010.4 - 0.0
25/12:00pm 30.5 31.6 18.9 50 7.5 E 11 19 6 10 1010.7 1010.6 0.0
25/11:30am 30.3 31.4 19.6 52 7.0 E 13 20 7 11 1011.0 - 0.0
25/11:00am 29.3 30.5 19.9 57 6.2 SE 13 20 7 11 1011.4 - 0.0
25/10:30am 28.3 28.9 19.5 59 5.7 E 15 20 8 11 1011.6 - 0.0
25/10:00am 27.9 28.3 19.9 61 5.2 SE 17 22 9 12 1011.8 - 0.0
25/09:30am 27.5 27.9 19.0 59 5.5 ESE 15 20 8 11 1011.6 - 0.0
25/09:00am 27.2 27.8 19.5 62 5.0 SE 15 20 8 11 1011.3 1011.2 0.0
25/08:30am 26.4 27.2 19.0 63 4.7 SE 13 17 7 9 1011.2 - 0.0
25/08:00am 25.0 26.9 19.8 73 3.4 SE 9 13 5 7 1010.9 - 0.0
25/07:30am 23.6 25.5 19.7 79 2.5 SSE 9 13 5 7 1010.6 - 0.0
25/07:00am 22.3 24.0 19.3 83 1.9 SSE 9 11 5 6 1010.5 - 0.0
25/06:30am 21.7 23.6 18.9 84 1.8 S 7 9 4 5 1010.4 - 0.0
25/06:00am 21.9 24.3 18.7 82 2.0 S 4 7 2 4 1010.6 1010.5 0.0
25/05:30am 22.4 24.8 18.8 80 2.3 SSE 4 6 2 3 1010.3 - 0.0
25/05:00am 22.8 24.9 19.0 79 2.4 SSE 6 7 3 4 1010.1 - 0.0
25/04:30am 22.9 25.0 18.9 78 2.5 SSE 6 9 3 5 1010.2 - 0.0
25/04:00am 23.0 25.0 18.7 77 2.7 SE 6 7 3 4 1010.3 - 0.0
25/03:30am 23.2 25.0 18.3 74 3.1 SSE 6 7 3 4 1010.3 - 0.0
25/03:00am 23.3 25.1 18.4 74 3.1 SSE 6 7 3 4 1010.4 1010.3 0.0
25/02:30am 23.8 25.4 18.2 71 3.5 SSE 7 9 4 5 1010.2 - 0.0
25/02:00am 23.9 25.6 18.5 72 3.4 SSE 7 9 4 5 1010.2 - 0.0
25/01:30am 24.2 25.9 18.6 71 3.5 SSE 7 9 4 5 1010.3 - 0.0
25/01:00am 25.1 26.7 19.2 70 3.8 SE 9 11 5 6 1010.4 - 0.0
25/12:30am 26.1 26.5 19.0 65 4.6 SE 15 20 8 11 1010.5 - 0.0
25/12:00am 26.6 26.1 18.7 62 5.1 ESE 19 26 10 14 1010.7 1010.6 0.0
 
Date/Time
CST
Temp
°C
App
Temp
°C
Dew
Point
Rel
Hum
%
Delta-T
°C
Wind Press
QNH
hPa
Press
MSL
hPa
Rain
since 9 am
mm
Dir
 
Spd
km/h
Gust
km/h
Spd
kts
Gust
kts
24/11:30pm 26.8 26.8 18.9 62 5.1 ESE 17 26 9 14 1010.9 - 0.0
24/11:00pm 27.2 26.5 18.2 58 5.7 ESE 19 28 10 15 1011.0 - 0.0
24/10:30pm 27.7 26.7 17.5 53 6.4 ESE 19 28 10 15 1011.0 - 0.0
24/10:00pm 27.6 27.6 17.2 53 6.5 ESE 13 22 7 12 1011.1 - 0.0
24/09:30pm 27.9 27.4 17.7 53 6.5 ESE 17 22 9 12 1011.0 - 0.0
24/09:00pm 27.3 28.4 18.0 56 5.9 ESE 9 17 5 9 1010.9 1010.8 0.0
24/08:30pm 26.9 29.2 19.5 64 4.8 SE 6 7 3 4 1010.7 - 0.0
24/08:00pm 26.6 29.9 20.0 67 4.3 SE 2 6 1 3 1010.3 - 0.0
24/07:30pm 26.8 30.4 19.7 65 4.6 CALM 0 0 0 0 1009.9 - 0.0
24/07:00pm 27.0 30.1 18.6 60 5.4 CALM 0 0 0 0 1009.6 - 0.0
24/06:30pm 28.1 30.6 18.2 55 6.3 ENE 2 6 1 3 1009.2 - 0.0
24/06:00pm 30.0 31.6 17.8 48 7.8 ENE 6 9 3 5 1008.9 1008.8 0.0
24/05:30pm 30.7 31.8 17.0 43 8.7 ENE 7 11 4 6 1008.5 - 0.0
24/05:00pm 31.3 31.9 16.8 41 9.2 NE 9 13 5 7 1008.4 - 0.0
24/04:30pm 31.7 31.5 15.6 37 10.0 E 11 17 6 9 1008.3 - 0.0
24/04:00pm 32.4 32.8 16.3 38 10.1 E 9 13 5 7 1008.2 - 0.0
24/03:30pm 32.3 31.1 14.0 33 11.1 E 13 19 7 10 1008.3 - 0.0
24/03:00pm 32.5 31.3 15.1 35 10.8 E 15 20 8 11 1008.4 1008.3 0.0
24/02:30pm 32.2 31.3 14.8 35 10.7 E 13 20 7 11 1008.5 - 0.0
24/02:00pm 31.9 30.7 15.0 36 10.4 E 15 22 8 12 1008.8 - 0.0
24/01:30pm 32.5 32.1 17.2 40 9.8 E 15 20 8 11 1009.2 - 0.0
24/01:00pm 31.5 31.8 18.8 46 8.3 E 15 22 8 12 1009.6 - 0.0
24/12:30pm 31.5 31.7 18.5 46 8.4 ESE 15 24 8 13 1010.0 - 0.0
24/12:00pm 31.0 31.6 18.7 48 8.0 ESE 13 20 7 11 1010.4 1010.3 0.0
24/11:30am 30.3 31.6 20.2 54 6.7 ESE 13 26 7 14 1010.9 - 0.0
24/11:00am 29.5 30.4 20.9 60 5.7 ESE 17 24 9 13 1011.2 - 0.0
24/10:30am 29.3 30.8 21.3 62 5.3 E 15 20 8 11 1011.6 - 0.0
24/10:00am 29.1 30.8 21.6 64 5.0 ESE 15 20 8 11 1011.5 - 0.0
24/09:30am 28.5 30.3 21.8 67 4.5 SE 15 19 8 10 1011.7 - 0.0
24/09:00am 28.0 30.5 21.8 69 4.2 ESE 11 15 6 8 1011.6 1011.5 0.0
24/08:30am 27.3 29.5 21.1 69 4.1 SE 11 15 6 8 1011.5 - 0.0
24/08:00am 26.1 28.8 20.7 72 3.5 SSE 7 11 4 6 1011.3 - 0.0
24/07:30am 25.2 27.9 20.7 76 2.9 SE 7 9 4 5 1011.0 - 0.0
24/07:00am 24.2 27.2 20.9 82 2.2 SE 6 7 3 4 1010.7 - 0.0
24/06:30am 23.9 26.6 20.6 82 2.2 SE 7 7 4 4 1010.5 - 0.0
24/06:00am 24.0 26.9 20.7 82 2.2 SE 6 7 3 4 1010.3 1010.2 0.0
24/05:30am 24.2 27.1 20.7 81 2.3 SSE 6 9 3 5 1010.1 - 0.0
24/05:00am 24.0 27.9 20.3 80 2.4 CALM 0 0 0 0 1010.0 - 0.0
24/04:30am 24.4 27.1 20.3 78 2.7 SSE 6 7 3 4 1010.0 - 0.0
24/04:00am 24.8 27.3 20.3 76 2.9 SE 7 9 4 5 1010.0 - 0.0
24/03:30am 25.1 27.3 20.4 75 3.1 SE 9 11 5 6 1009.9 - 0.0
24/03:00am 25.3 27.0 20.1 73 3.4 SE 11 13 6 7 1009.8 1009.7 0.0
24/02:30am 25.4 27.4 20.0 72 3.5 SE 9 11 5 6 1009.9 - 0.0
24/02:00am 25.8 27.5 20.1 71 3.7 SSE 11 15 6 8 1010.1 - 0.0
24/01:30am 26.3 28.3 20.8 71 3.6 SE 11 17 6 9 1010.2 - 0.0
24/01:00am 26.2 29.1 21.0 73 3.4 SE 7 11 4 6 1010.4 - 0.0
24/12:30am 26.6 28.9 20.7 70 3.9 SE 9 13 5 7 1010.5 - 0.0
24/12:00am 27.2 28.6 20.3 66 4.5 ESE 13 19 7 10 1010.6 1010.5 0.0
 
Date/Time
CST
Temp
°C
App
Temp
°C
Dew
Point
Rel
Hum
%
Delta-T
°C
Wind Press
QNH
hPa
Press
MSL
hPa
Rain
since 9 am
mm
Dir
 
Spd
km/h
Gust
km/h
Spd
kts
Gust
kts
23/11:30pm 27.6 28.4 19.9 63 5.0 ESE 15 22 8 12 1010.6 - 0.0
23/11:00pm 27.7 28.9 19.8 62 5.1 ESE 13 19 7 10 1010.7 - 0.0
23/10:30pm 27.7 29.1 20.3 64 4.9 ESE 13 17 7 9 1010.7 - 0.0
23/10:00pm 27.4 31.0 22.1 73 3.6 SE 6 7 3 4 1010.9 - 0.0
23/09:30pm 27.4 31.4 22.8 76 3.1 ESE 6 7 3 4 1010.8 - 0.0
23/09:00pm 27.9 33.0 22.6 73 3.6 CALM 0 0 0 0 1010.7 1010.6 0.0
23/08:30pm 27.9 33.0 22.6 73 3.6 CALM 0 0 0 0 1010.5 - 0.0
23/08:00pm 28.1 33.3 22.8 73 3.6 CALM 0 0 0 0 1010.0 - 0.0
23/07:30pm 27.9 31.4 21.9 70 4.0 N 6 7 3 4 1009.6 - 0.0
23/07:00pm 28.6 31.9 21.4 65 4.8 N 6 7 3 4 1009.1 - 0.0
23/06:30pm 29.6 32.7 21.0 60 5.7 NE 6 7 3 4 1008.8 - 0.0
23/06:00pm 30.6 33.0 20.8 56 6.5 ENE 9 15 5 8 1008.4 1008.3 0.0
23/05:30pm 31.1 32.4 19.4 49 7.7 ENE 11 17 6 9 1008.4 - 0.0
23/05:00pm 31.9 33.0 18.8 45 8.5 NE 11 15 6 8 1008.2 - 0.0
23/04:30pm 32.3 33.1 18.1 42 9.2 NE 11 19 6 10 1008.1 - 0.0
23/04:00pm 32.3 32.8 17.4 41 9.5 ENE 11 19 6 10 1008.2 - 0.0
23/03:30pm 32.2 33.4 19.1 45 8.6 NE 11 17 6 9 1008.3 - 0.0
23/03:00pm 32.6 34.5 20.5 49 8.1 NE 11 19 6 10 1008.3 1008.2 0.0
23/02:30pm 32.2 33.6 19.5 47 8.4 ENE 11 17 6 9 1008.4 - 0.0
23/02:00pm 32.2 32.4 17.7 42 9.3 E 13 19 7 10 1008.9 - 0.0
23/01:30pm 32.0 32.0 18.2 43 8.9 E 15 22 8 12 1009.0 - 0.0
23/01:00pm 31.8 32.1 18.7 45 8.5 E 15 22 8 12 1009.3 - 0.0
23/12:30pm 32.1 33.5 21.0 52 7.4 ESE 15 26 8 14 1009.6 - 0.0
23/12:00pm 31.8 32.6 19.8 49 7.9 E 15 26 8 14 1009.9 1009.8 0.0
23/11:30am 31.1 32.3 20.7 54 6.9 E 15 26 8 14 1010.3 - 0.0
23/11:00am 30.7 31.6 20.9 56 6.5 ESE 17 24 9 13 1010.5 - 0.0

Other Formats:

Comma delimited format used in spreadsheet applications
http://www.bom.gov.au/fwo/IDD60801/IDD60801.94140.axf

JavaScript Object Notation format (JSON) in row-major order
http://www.bom.gov.au/fwo/IDD60801/IDD60801.94140.json